sensor_id;sensor_type;location;lat;lon;timestamp;P1;durP1;ratioP1;P2;durP2;ratioP2
22677;SDS011;26259;50.214;18.620;2022-10-31T00:00:07;66.90;;;34.80;;
22677;SDS011;26259;50.214;18.620;2022-10-31T00:02:33;68.93;;;35.83;;
22677;SDS011;26259;50.214;18.620;2022-10-31T00:04:59;71.00;;;35.73;;
22677;SDS011;26259;50.214;18.620;2022-10-31T00:07:24;76.13;;;38.40;;
22677;SDS011;26259;50.214;18.620;2022-10-31T00:09:50;77.47;;;39.10;;
22677;SDS011;26259;50.214;18.620;2022-10-31T00:12:16;81.77;;;40.00;;
22677;SDS011;26259;50.214;18.620;2022-10-31T00:14:41;99.13;;;46.40;;
22677;SDS011;26259;50.214;18.620;2022-10-31T00:17:07;107.47;;;54.20;;
22677;SDS011;26259;50.214;18.620;2022-10-31T00:19:32;93.63;;;43.77;;
22677;SDS011;26259;50.214;18.620;2022-10-31T00:21:58;74.60;;;36.20;;
22677;SDS011;26259;50.214;18.620;2022-10-31T00:24:23;67.60;;;34.83;;
22677;SDS011;26259;50.214;18.620;2022-10-31T00:26:49;85.67;;;37.47;;
22677;SDS011;26259;50.214;18.620;2022-10-31T00:29:14;77.80;;;32.80;;
22677;SDS011;26259;50.214;18.620;2022-10-31T00:31:40;68.77;;;32.37;;
22677;SDS011;26259;50.214;18.620;2022-10-31T00:34:06;78.30;;;35.93;;
22677;SDS011;26259;50.214;18.620;2022-10-31T00:36:31;75.30;;;36.33;;
22677;SDS011;26259;50.214;18.620;2022-10-31T00:38:57;72.47;;;40.07;;
22677;SDS011;26259;50.214;18.620;2022-10-31T00:41:23;81.47;;;39.87;;
22677;SDS011;26259;50.214;18.620;2022-10-31T00:43:49;78.03;;;38.50;;
22677;SDS011;26259;50.214;18.620;2022-10-31T00:46:15;92.50;;;42.57;;
22677;SDS011;26259;50.214;18.620;2022-10-31T00:48:41;97.00;;;43.53;;
22677;SDS011;26259;50.214;18.620;2022-10-31T00:51:07;74.53;;;38.07;;
22677;SDS011;26259;50.214;18.620;2022-10-31T00:53:32;76.47;;;39.43;;
22677;SDS011;26259;50.214;18.620;2022-10-31T00:55:58;74.37;;;38.23;;
22677;SDS011;26259;50.214;18.620;2022-10-31T00:58:24;80.87;;;40.50;;
22677;SDS011;26259;50.214;18.620;2022-10-31T01:00:49;78.03;;;38.67;;
22677;SDS011;26259;50.214;18.620;2022-10-31T01:03:24;81.67;;;42.13;;
22677;SDS011;26259;50.214;18.620;2022-10-31T01:06:03;75.40;;;39.70;;
22677;SDS011;26259;50.214;18.620;2022-10-31T01:08:33;80.73;;;39.43;;
22677;SDS011;26259;50.214;18.620;2022-10-31T01:13:39;72.90;;;38.40;;
22677;SDS011;26259;50.214;18.620;2022-10-31T01:16:06;76.67;;;38.27;;
22677;SDS011;26259;50.214;18.620;2022-10-31T01:18:33;75.70;;;39.77;;
22677;SDS011;26259;50.214;18.620;2022-10-31T01:21:00;86.83;;;44.33;;
22677;SDS011;26259;50.214;18.620;2022-10-31T01:23:30;84.03;;;43.10;;
22677;SDS011;26259;50.214;18.620;2022-10-31T01:26:08;82.07;;;42.57;;
22677;SDS011;26259;50.214;18.620;2022-10-31T01:28:40;82.07;;;40.80;;
22677;SDS011;26259;50.214;18.620;2022-10-31T01:31:10;84.10;;;42.70;;
22677;SDS011;26259;50.214;18.620;2022-10-31T01:33:36;77.37;;;41.70;;
22677;SDS011;26259;50.214;18.620;2022-10-31T01:36:12;87.80;;;43.77;;
22677;SDS011;26259;50.214;18.620;2022-10-31T01:38:38;83.77;;;45.97;;
22677;SDS011;26259;50.214;18.620;2022-10-31T01:41:04;89.37;;;47.13;;
22677;SDS011;26259;50.214;18.620;2022-10-31T01:43:46;79.07;;;42.53;;
22677;SDS011;26259;50.214;18.620;2022-10-31T01:46:14;86.93;;;43.13;;
22677;SDS011;26259;50.214;18.620;2022-10-31T01:48:42;88.40;;;44.03;;
22677;SDS011;26259;50.214;18.620;2022-10-31T01:51:08;92.67;;;42.77;;
22677;SDS011;26259;50.214;18.620;2022-10-31T01:53:38;83.17;;;41.60;;
22677;SDS011;26259;50.214;18.620;2022-10-31T01:56:05;83.37;;;40.60;;
22677;SDS011;26259;50.214;18.620;2022-10-31T01:58:32;87.43;;;40.43;;
22677;SDS011;26259;50.214;18.620;2022-10-31T02:00:58;94.60;;;42.97;;
22677;SDS011;26259;50.214;18.620;2022-10-31T02:03:25;84.53;;;41.17;;
22677;SDS011;26259;50.214;18.620;2022-10-31T02:05:53;91.63;;;42.40;;
22677;SDS011;26259;50.214;18.620;2022-10-31T02:08:21;92.10;;;39.33;;
22677;SDS011;26259;50.214;18.620;2022-10-31T02:10:56;98.77;;;43.20;;
22677;SDS011;26259;50.214;18.620;2022-10-31T02:13:23;81.50;;;37.97;;
22677;SDS011;26259;50.214;18.620;2022-10-31T02:15:54;76.17;;;35.50;;
22677;SDS011;26259;50.214;18.620;2022-10-31T02:18:21;75.50;;;34.03;;
22677;SDS011;26259;50.214;18.620;2022-10-31T02:23:45;66.77;;;33.70;;
22677;SDS011;26259;50.214;18.620;2022-10-31T02:29:13;81.03;;;36.00;;
22677;SDS011;26259;50.214;18.620;2022-10-31T02:40:17;110.63;;;49.60;;
22677;SDS011;26259;50.214;18.620;2022-10-31T02:48:14;78.07;;;37.53;;
22677;SDS011;26259;50.214;18.620;2022-10-31T02:50:48;84.03;;;36.60;;
22677;SDS011;26259;50.214;18.620;2022-10-31T02:53:36;85.40;;;40.27;;
22677;SDS011;26259;50.214;18.620;2022-10-31T02:56:11;84.90;;;41.37;;
22677;SDS011;26259;50.214;18.620;2022-10-31T02:59:02;99.90;;;43.03;;
22677;SDS011;26259;50.214;18.620;2022-10-31T03:01:51;113.30;;;42.60;;
22677;SDS011;26259;50.214;18.620;2022-10-31T03:04:35;101.70;;;41.53;;
22677;SDS011;26259;50.214;18.620;2022-10-31T03:07:15;84.93;;;40.33;;
22677;SDS011;26259;50.214;18.620;2022-10-31T03:10:07;108.37;;;47.33;;
22677;SDS011;26259;50.214;18.620;2022-10-31T03:13:21;119.40;;;50.10;;
22677;SDS011;26259;50.214;18.620;2022-10-31T03:16:18;108.23;;;46.97;;
22677;SDS011;26259;50.214;18.620;2022-10-31T03:19:08;93.73;;;40.73;;
22677;SDS011;26259;50.214;18.620;2022-10-31T03:21:59;86.67;;;39.77;;
22677;SDS011;26259;50.214;18.620;2022-10-31T03:24:34;82.37;;;38.87;;
22677;SDS011;26259;50.214;18.620;2022-10-31T03:27:02;83.03;;;38.53;;
22677;SDS011;26259;50.214;18.620;2022-10-31T03:29:32;72.03;;;36.87;;
22677;SDS011;26259;50.214;18.620;2022-10-31T03:32:02;71.27;;;35.63;;
22677;SDS011;26259;50.214;18.620;2022-10-31T03:34:29;84.07;;;35.93;;
22677;SDS011;26259;50.214;18.620;2022-10-31T03:36:56;67.77;;;34.13;;
22677;SDS011;26259;50.214;18.620;2022-10-31T03:39:24;72.67;;;35.50;;
22677;SDS011;26259;50.214;18.620;2022-10-31T03:42:04;64.27;;;31.30;;
22677;SDS011;26259;50.214;18.620;2022-10-31T03:44:32;57.17;;;31.10;;
22677;SDS011;26259;50.214;18.620;2022-10-31T03:47:00;55.40;;;29.23;;
22677;SDS011;26259;50.214;18.620;2022-10-31T03:49:27;54.27;;;28.50;;
22677;SDS011;26259;50.214;18.620;2022-10-31T03:54:51;55.43;;;27.53;;
22677;SDS011;26259;50.214;18.620;2022-10-31T03:57:29;53.80;;;28.27;;
22677;SDS011;26259;50.214;18.620;2022-10-31T04:00:06;52.47;;;26.97;;
22677;SDS011;26259;50.214;18.620;2022-10-31T04:02:35;57.20;;;28.27;;
22677;SDS011;26259;50.214;18.620;2022-10-31T04:05:05;62.07;;;30.43;;
22677;SDS011;26259;50.214;18.620;2022-10-31T04:07:34;56.70;;;27.80;;
22677;SDS011;26259;50.214;18.620;2022-10-31T04:10:06;65.53;;;30.50;;
22677;SDS011;26259;50.214;18.620;2022-10-31T04:12:34;64.60;;;31.17;;
22677;SDS011;26259;50.214;18.620;2022-10-31T04:15:02;57.27;;;28.77;;
22677;SDS011;26259;50.214;18.620;2022-10-31T04:17:31;71.93;;;33.20;;
22677;SDS011;26259;50.214;18.620;2022-10-31T04:19:59;57.47;;;31.10;;
22677;SDS011;26259;50.214;18.620;2022-10-31T04:22:26;58.43;;;29.23;;
22677;SDS011;26259;50.214;18.620;2022-10-31T04:24:51;54.97;;;28.53;;
22677;SDS011;26259;50.214;18.620;2022-10-31T04:27:17;52.07;;;26.97;;
22677;SDS011;26259;50.214;18.620;2022-10-31T04:29:43;51.57;;;27.40;;
22677;SDS011;26259;50.214;18.620;2022-10-31T04:32:08;52.13;;;26.73;;
22677;SDS011;26259;50.214;18.620;2022-10-31T04:34:34;48.83;;;26.10;;
22677;SDS011;26259;50.214;18.620;2022-10-31T04:36:59;51.73;;;27.70;;
22677;SDS011;26259;50.214;18.620;2022-10-31T04:39:25;47.67;;;26.20;;
22677;SDS011;26259;50.214;18.620;2022-10-31T04:41:50;57.20;;;29.10;;
22677;SDS011;26259;50.214;18.620;2022-10-31T04:44:16;75.70;;;33.73;;
22677;SDS011;26259;50.214;18.620;2022-10-31T04:46:41;70.93;;;31.20;;
22677;SDS011;26259;50.214;18.620;2022-10-31T04:49:07;66.13;;;33.00;;
22677;SDS011;26259;50.214;18.620;2022-10-31T04:51:32;64.43;;;34.13;;
22677;SDS011;26259;50.214;18.620;2022-10-31T04:53:58;80.13;;;36.93;;
22677;SDS011;26259;50.214;18.620;2022-10-31T04:56:23;64.70;;;32.80;;
22677;SDS011;26259;50.214;18.620;2022-10-31T04:58:49;115.00;;;48.50;;
22677;SDS011;26259;50.214;18.620;2022-10-31T05:01:15;181.30;;;70.73;;
22677;SDS011;26259;50.214;18.620;2022-10-31T05:03:40;106.83;;;48.83;;
22677;SDS011;26259;50.214;18.620;2022-10-31T05:06:06;96.57;;;44.30;;
22677;SDS011;26259;50.214;18.620;2022-10-31T05:08:32;86.03;;;40.73;;
22677;SDS011;26259;50.214;18.620;2022-10-31T05:11:01;80.67;;;39.40;;
22677;SDS011;26259;50.214;18.620;2022-10-31T05:13:27;72.73;;;36.13;;
22677;SDS011;26259;50.214;18.620;2022-10-31T05:15:53;74.27;;;36.97;;
22677;SDS011;26259;50.214;18.620;2022-10-31T05:18:19;73.90;;;36.50;;
22677;SDS011;26259;50.214;18.620;2022-10-31T05:20:44;69.30;;;36.50;;
22677;SDS011;26259;50.214;18.620;2022-10-31T05:23:10;80.23;;;39.47;;
22677;SDS011;26259;50.214;18.620;2022-10-31T05:25:35;99.83;;;44.20;;
22677;SDS011;26259;50.214;18.620;2022-10-31T05:28:01;90.10;;;41.87;;
22677;SDS011;26259;50.214;18.620;2022-10-31T05:30:28;89.00;;;43.67;;
22677;SDS011;26259;50.214;18.620;2022-10-31T05:32:55;134.97;;;57.77;;
22677;SDS011;26259;50.214;18.620;2022-10-31T05:35:22;130.70;;;55.00;;
22677;SDS011;26259;50.214;18.620;2022-10-31T05:37:49;118.73;;;51.30;;
22677;SDS011;26259;50.214;18.620;2022-10-31T05:40:15;111.17;;;50.83;;
22677;SDS011;26259;50.214;18.620;2022-10-31T05:42:42;116.27;;;49.80;;
22677;SDS011;26259;50.214;18.620;2022-10-31T05:45:09;117.27;;;52.53;;
22677;SDS011;26259;50.214;18.620;2022-10-31T05:47:37;106.10;;;48.47;;
22677;SDS011;26259;50.214;18.620;2022-10-31T05:50:02;102.20;;;46.80;;
22677;SDS011;26259;50.214;18.620;2022-10-31T05:52:28;110.50;;;50.93;;
22677;SDS011;26259;50.214;18.620;2022-10-31T05:54:54;97.20;;;48.37;;
22677;SDS011;26259;50.214;18.620;2022-10-31T05:57:19;102.10;;;47.77;;
22677;SDS011;26259;50.214;18.620;2022-10-31T05:59:45;100.43;;;46.17;;
22677;SDS011;26259;50.214;18.620;2022-10-31T06:02:11;91.83;;;47.37;;
22677;SDS011;26259;50.214;18.620;2022-10-31T06:04:36;104.27;;;49.03;;
22677;SDS011;26259;50.214;18.620;2022-10-31T06:07:02;103.13;;;46.53;;
22677;SDS011;26259;50.214;18.620;2022-10-31T06:09:27;99.83;;;48.97;;
22677;SDS011;26259;50.214;18.620;2022-10-31T06:11:53;93.40;;;46.70;;
22677;SDS011;26259;50.214;18.620;2022-10-31T06:14:18;103.73;;;50.77;;
22677;SDS011;26259;50.214;18.620;2022-10-31T06:16:44;105.20;;;50.33;;
22677;SDS011;26259;50.214;18.620;2022-10-31T06:19:10;107.27;;;51.67;;
22677;SDS011;26259;50.214;18.620;2022-10-31T06:21:35;113.97;;;52.33;;
22677;SDS011;26259;50.214;18.620;2022-10-31T06:24:01;111.37;;;52.77;;
22677;SDS011;26259;50.214;18.620;2022-10-31T06:26:26;129.87;;;59.50;;
22677;SDS011;26259;50.214;18.620;2022-10-31T06:28:52;121.13;;;54.97;;
22677;SDS011;26259;50.214;18.620;2022-10-31T06:31:18;126.07;;;57.57;;
22677;SDS011;26259;50.214;18.620;2022-10-31T06:33:43;122.43;;;59.07;;
22677;SDS011;26259;50.214;18.620;2022-10-31T06:36:09;116.00;;;56.50;;
22677;SDS011;26259;50.214;18.620;2022-10-31T06:38:35;118.30;;;55.10;;
22677;SDS011;26259;50.214;18.620;2022-10-31T06:41:04;114.57;;;52.30;;
22677;SDS011;26259;50.214;18.620;2022-10-31T06:43:30;124.90;;;54.13;;
22677;SDS011;26259;50.214;18.620;2022-10-31T06:45:55;92.63;;;48.70;;
22677;SDS011;26259;50.214;18.620;2022-10-31T06:48:21;104.90;;;48.97;;
22677;SDS011;26259;50.214;18.620;2022-10-31T06:50:47;108.23;;;51.63;;
22677;SDS011;26259;50.214;18.620;2022-10-31T06:53:12;112.47;;;52.80;;
22677;SDS011;26259;50.214;18.620;2022-10-31T06:55:41;120.53;;;55.07;;
22677;SDS011;26259;50.214;18.620;2022-10-31T06:58:08;158.07;;;74.45;;
22677;SDS011;26259;50.214;18.620;2022-10-31T07:00:34;144.07;;;64.53;;
22677;SDS011;26259;50.214;18.620;2022-10-31T07:03:01;150.40;;;66.93;;
22677;SDS011;26259;50.214;18.620;2022-10-31T07:05:29;138.50;;;67.70;;
22677;SDS011;26259;50.214;18.620;2022-10-31T07:07:56;142.30;;;68.70;;
22677;SDS011;26259;50.214;18.620;2022-10-31T07:10:23;143.40;;;65.80;;
22677;SDS011;26259;50.214;18.620;2022-10-31T07:12:57;130.13;;;61.73;;
22677;SDS011;26259;50.214;18.620;2022-10-31T07:15:25;125.43;;;57.93;;
22677;SDS011;26259;50.214;18.620;2022-10-31T07:17:52;123.97;;;56.07;;
22677;SDS011;26259;50.214;18.620;2022-10-31T07:20:18;110.97;;;51.73;;
22677;SDS011;26259;50.214;18.620;2022-10-31T07:22:44;103.63;;;49.37;;
22677;SDS011;26259;50.214;18.620;2022-10-31T07:25:10;105.00;;;47.20;;
22677;SDS011;26259;50.214;18.620;2022-10-31T07:27:36;113.37;;;48.73;;
22677;SDS011;26259;50.214;18.620;2022-10-31T07:30:02;105.83;;;47.17;;
22677;SDS011;26259;50.214;18.620;2022-10-31T07:32:50;106.63;;;46.23;;
22677;SDS011;26259;50.214;18.620;2022-10-31T07:35:19;104.73;;;47.00;;
22677;SDS011;26259;50.214;18.620;2022-10-31T07:37:47;106.37;;;45.70;;
22677;SDS011;26259;50.214;18.620;2022-10-31T07:40:13;111.07;;;47.70;;
22677;SDS011;26259;50.214;18.620;2022-10-31T07:42:40;105.33;;;45.13;;
22677;SDS011;26259;50.214;18.620;2022-10-31T07:45:08;108.10;;;47.30;;
22677;SDS011;26259;50.214;18.620;2022-10-31T07:47:42;105.60;;;47.37;;
22677;SDS011;26259;50.214;18.620;2022-10-31T07:50:10;112.87;;;50.27;;
22677;SDS011;26259;50.214;18.620;2022-10-31T07:52:40;112.83;;;46.20;;
22677;SDS011;26259;50.214;18.620;2022-10-31T07:55:06;105.57;;;47.03;;
22677;SDS011;26259;50.214;18.620;2022-10-31T07:57:32;105.57;;;46.77;;
22677;SDS011;26259;50.214;18.620;2022-10-31T07:59:58;103.37;;;47.90;;
22677;SDS011;26259;50.214;18.620;2022-10-31T08:02:23;88.73;;;43.07;;
22677;SDS011;26259;50.214;18.620;2022-10-31T08:04:49;94.20;;;44.67;;
22677;SDS011;26259;50.214;18.620;2022-10-31T08:07:15;88.27;;;43.10;;
22677;SDS011;26259;50.214;18.620;2022-10-31T08:09:41;89.70;;;43.27;;
22677;SDS011;26259;50.214;18.620;2022-10-31T08:12:06;87.30;;;43.13;;
22677;SDS011;26259;50.214;18.620;2022-10-31T08:14:32;79.03;;;40.03;;
22677;SDS011;26259;50.214;18.620;2022-10-31T08:16:58;79.07;;;40.00;;
22677;SDS011;26259;50.214;18.620;2022-10-31T08:19:23;76.33;;;40.50;;
22677;SDS011;26259;50.214;18.620;2022-10-31T08:21:52;79.70;;;40.60;;
22677;SDS011;26259;50.214;18.620;2022-10-31T08:24:19;70.90;;;38.97;;
22677;SDS011;26259;50.214;18.620;2022-10-31T08:26:46;71.97;;;39.03;;
22677;SDS011;26259;50.214;18.620;2022-10-31T08:29:12;66.13;;;34.93;;
22677;SDS011;26259;50.214;18.620;2022-10-31T08:31:37;62.00;;;34.63;;
22677;SDS011;26259;50.214;18.620;2022-10-31T08:34:03;63.10;;;34.60;;
22677;SDS011;26259;50.214;18.620;2022-10-31T08:36:29;62.50;;;34.40;;
22677;SDS011;26259;50.214;18.620;2022-10-31T08:38:55;59.50;;;36.57;;
22677;SDS011;26259;50.214;18.620;2022-10-31T08:41:21;55.93;;;31.70;;
22677;SDS011;26259;50.214;18.620;2022-10-31T08:43:46;53.27;;;31.17;;
22677;SDS011;26259;50.214;18.620;2022-10-31T08:46:12;50.73;;;28.97;;
22677;SDS011;26259;50.214;18.620;2022-10-31T08:48:38;43.40;;;27.07;;
22677;SDS011;26259;50.214;18.620;2022-10-31T08:51:04;44.17;;;27.33;;
22677;SDS011;26259;50.214;18.620;2022-10-31T08:53:29;36.33;;;22.87;;
22677;SDS011;26259;50.214;18.620;2022-10-31T08:55:55;45.87;;;23.60;;
22677;SDS011;26259;50.214;18.620;2022-10-31T08:58:21;34.70;;;22.73;;
22677;SDS011;26259;50.214;18.620;2022-10-31T09:00:48;35.73;;;22.33;;
22677;SDS011;26259;50.214;18.620;2022-10-31T09:03:20;30.97;;;20.27;;
22677;SDS011;26259;50.214;18.620;2022-10-31T09:05:50;32.53;;;20.63;;
22677;SDS011;26259;50.214;18.620;2022-10-31T09:08:19;34.10;;;20.17;;
22677;SDS011;26259;50.214;18.620;2022-10-31T09:10:45;32.77;;;19.13;;
22677;SDS011;26259;50.214;18.620;2022-10-31T09:13:15;32.17;;;19.57;;
22677;SDS011;26259;50.214;18.620;2022-10-31T09:15:43;32.30;;;18.53;;
22677;SDS011;26259;50.214;18.620;2022-10-31T09:18:11;29.50;;;15.43;;
22677;SDS011;26259;50.214;18.620;2022-10-31T09:20:38;30.87;;;17.73;;
22677;SDS011;26259;50.214;18.620;2022-10-31T09:23:15;29.53;;;16.43;;
22677;SDS011;26259;50.214;18.620;2022-10-31T09:25:42;24.90;;;17.03;;
22677;SDS011;26259;50.214;18.620;2022-10-31T09:28:09;26.50;;;16.07;;
22677;SDS011;26259;50.214;18.620;2022-10-31T09:30:36;25.73;;;16.40;;
22677;SDS011;26259;50.214;18.620;2022-10-31T09:33:04;25.23;;;13.57;;
22677;SDS011;26259;50.214;18.620;2022-10-31T09:35:35;23.03;;;13.10;;
22677;SDS011;26259;50.214;18.620;2022-10-31T09:38:02;24.63;;;14.47;;
22677;SDS011;26259;50.214;18.620;2022-10-31T09:40:39;24.43;;;13.70;;
22677;SDS011;26259;50.214;18.620;2022-10-31T09:46:00;30.03;;;16.03;;
22677;SDS011;26259;50.214;18.620;2022-10-31T09:51:23;25.03;;;15.10;;
22677;SDS011;26259;50.214;18.620;2022-10-31T09:53:56;29.13;;;16.37;;
22677;SDS011;26259;50.214;18.620;2022-10-31T09:56:35;25.27;;;17.10;;
22677;SDS011;26259;50.214;18.620;2022-10-31T09:59:02;26.83;;;15.93;;
22677;SDS011;26259;50.214;18.620;2022-10-31T10:01:32;26.90;;;17.13;;
22677;SDS011;26259;50.214;18.620;2022-10-31T10:06:56;28.90;;;14.93;;
22677;SDS011;26259;50.214;18.620;2022-10-31T10:09:24;25.53;;;13.83;;
22677;SDS011;26259;50.214;18.620;2022-10-31T10:14:32;23.90;;;14.67;;
22677;SDS011;26259;50.214;18.620;2022-10-31T10:17:41;23.00;;;13.77;;
22677;SDS011;26259;50.214;18.620;2022-10-31T10:20:10;22.23;;;13.63;;
22677;SDS011;26259;50.214;18.620;2022-10-31T10:22:57;22.13;;;15.13;;
22677;SDS011;26259;50.214;18.620;2022-10-31T10:25:42;22.70;;;13.43;;
22677;SDS011;26259;50.214;18.620;2022-10-31T10:30:56;21.43;;;14.33;;
22677;SDS011;26259;50.214;18.620;2022-10-31T10:33:31;21.93;;;13.70;;
22677;SDS011;26259;50.214;18.620;2022-10-31T10:36:02;21.13;;;13.73;;
22677;SDS011;26259;50.214;18.620;2022-10-31T10:38:34;27.97;;;14.00;;
22677;SDS011;26259;50.214;18.620;2022-10-31T10:41:02;25.97;;;14.87;;
22677;SDS011;26259;50.214;18.620;2022-10-31T10:43:34;22.53;;;13.60;;
22677;SDS011;26259;50.214;18.620;2022-10-31T10:51:41;16.60;;;11.87;;
22677;SDS011;26259;50.214;18.620;2022-10-31T10:57:00;21.43;;;12.83;;
22677;SDS011;26259;50.214;18.620;2022-10-31T10:59:47;21.90;;;12.33;;
22677;SDS011;26259;50.214;18.620;2022-10-31T11:02:16;24.23;;;12.33;;
22677;SDS011;26259;50.214;18.620;2022-10-31T11:04:43;21.93;;;12.73;;
22677;SDS011;26259;50.214;18.620;2022-10-31T11:07:13;17.93;;;11.83;;
22677;SDS011;26259;50.214;18.620;2022-10-31T11:09:39;17.97;;;10.63;;
22677;SDS011;26259;50.214;18.620;2022-10-31T11:14:51;20.23;;;9.80;;
22677;SDS011;26259;50.214;18.620;2022-10-31T11:17:28;19.00;;;10.87;;
22677;SDS011;26259;50.214;18.620;2022-10-31T11:20:39;16.70;;;9.37;;
22677;SDS011;26259;50.214;18.620;2022-10-31T11:23:05;19.30;;;9.33;;
22677;SDS011;26259;50.214;18.620;2022-10-31T11:25:47;20.03;;;9.60;;
22677;SDS011;26259;50.214;18.620;2022-10-31T11:28:15;24.27;;;8.83;;
22677;SDS011;26259;50.214;18.620;2022-10-31T11:30:47;15.37;;;8.50;;
22677;SDS011;26259;50.214;18.620;2022-10-31T11:33:22;26.47;;;14.07;;
22677;SDS011;26259;50.214;18.620;2022-10-31T11:35:53;13.93;;;8.83;;
22677;SDS011;26259;50.214;18.620;2022-10-31T11:38:20;17.10;;;8.13;;
22677;SDS011;26259;50.214;18.620;2022-10-31T11:40:53;16.70;;;8.47;;
22677;SDS011;26259;50.214;18.620;2022-10-31T11:43:21;16.40;;;8.13;;
22677;SDS011;26259;50.214;18.620;2022-10-31T11:45:47;13.70;;;7.60;;
22677;SDS011;26259;50.214;18.620;2022-10-31T11:48:17;15.77;;;7.60;;
22677;SDS011;26259;50.214;18.620;2022-10-31T11:50:48;16.93;;;8.00;;
22677;SDS011;26259;50.214;18.620;2022-10-31T11:53:27;12.60;;;6.97;;
22677;SDS011;26259;50.214;18.620;2022-10-31T11:56:05;19.40;;;7.33;;
22677;SDS011;26259;50.214;18.620;2022-10-31T11:58:39;11.13;;;7.13;;
22677;SDS011;26259;50.214;18.620;2022-10-31T12:01:05;12.00;;;6.67;;
22677;SDS011;26259;50.214;18.620;2022-10-31T12:03:42;14.80;;;7.03;;
22677;SDS011;26259;50.214;18.620;2022-10-31T12:06:41;20.03;;;6.90;;
22677;SDS011;26259;50.214;18.620;2022-10-31T12:09:24;10.73;;;6.93;;
22677;SDS011;26259;50.214;18.620;2022-10-31T12:22:40;12.37;;;7.40;;
22677;SDS011;26259;50.214;18.620;2022-10-31T12:30:42;11.30;;;5.60;;
22677;SDS011;26259;50.214;18.620;2022-10-31T12:36:40;15.10;;;5.97;;
22677;SDS011;26259;50.214;18.620;2022-10-31T12:39:15;16.23;;;5.10;;
22677;SDS011;26259;50.214;18.620;2022-10-31T12:42:11;12.90;;;5.60;;
22677;SDS011;26259;50.214;18.620;2022-10-31T12:45:09;11.27;;;4.77;;
22677;SDS011;26259;50.214;18.620;2022-10-31T12:48:01;11.27;;;4.27;;
22677;SDS011;26259;50.214;18.620;2022-10-31T12:51:30;14.03;;;4.80;;
22677;SDS011;26259;50.214;18.620;2022-10-31T12:59:28;13.20;;;4.90;;
22677;SDS011;26259;50.214;18.620;2022-10-31T13:02:09;15.90;;;5.00;;
22677;SDS011;26259;50.214;18.620;2022-10-31T13:04:46;14.00;;;4.90;;
22677;SDS011;26259;50.214;18.620;2022-10-31T13:07:20;23.40;;;6.30;;
22677;SDS011;26259;50.214;18.620;2022-10-31T13:09:58;18.47;;;5.10;;
22677;SDS011;26259;50.214;18.620;2022-10-31T13:12:31;15.77;;;5.90;;
22677;SDS011;26259;50.214;18.620;2022-10-31T13:14:59;12.37;;;4.57;;
22677;SDS011;26259;50.214;18.620;2022-10-31T13:17:48;13.10;;;4.43;;
22677;SDS011;26259;50.214;18.620;2022-10-31T13:23:21;15.80;;;5.07;;
22677;SDS011;26259;50.214;18.620;2022-10-31T13:26:11;15.67;;;6.07;;
22677;SDS011;26259;50.214;18.620;2022-10-31T13:28:43;10.00;;;4.90;;
22677;SDS011;26259;50.214;18.620;2022-10-31T13:31:12;11.00;;;4.63;;
22677;SDS011;26259;50.214;18.620;2022-10-31T13:33:48;11.50;;;4.37;;
22677;SDS011;26259;50.214;18.620;2022-10-31T13:44:28;12.30;;;5.07;;
22677;SDS011;26259;50.214;18.620;2022-10-31T13:46:57;15.03;;;5.23;;
22677;SDS011;26259;50.214;18.620;2022-10-31T13:54:43;11.93;;;4.73;;
22677;SDS011;26259;50.214;18.620;2022-10-31T13:57:22;17.37;;;5.30;;
22677;SDS011;26259;50.214;18.620;2022-10-31T13:59:59;11.70;;;4.50;;
22677;SDS011;26259;50.214;18.620;2022-10-31T14:02:45;12.17;;;4.87;;
22677;SDS011;26259;50.214;18.620;2022-10-31T14:05:24;11.43;;;4.37;;
22677;SDS011;26259;50.214;18.620;2022-10-31T14:07:52;12.30;;;4.57;;
22677;SDS011;26259;50.214;18.620;2022-10-31T14:11:21;10.13;;;4.60;;
22677;SDS011;26259;50.214;18.620;2022-10-31T14:13:32;13.60;;;4.93;;
22677;SDS011;26259;50.214;18.620;2022-10-31T14:16:25;13.50;;;4.63;;
22677;SDS011;26259;50.214;18.620;2022-10-31T14:19:13;10.57;;;4.97;;
22677;SDS011;26259;50.214;18.620;2022-10-31T14:21:43;11.23;;;5.57;;
22677;SDS011;26259;50.214;18.620;2022-10-31T14:26:51;13.07;;;5.83;;
22677;SDS011;26259;50.214;18.620;2022-10-31T14:31:57;11.93;;;4.70;;
22677;SDS011;26259;50.214;18.620;2022-10-31T14:34:38;19.83;;;5.37;;
22677;SDS011;26259;50.214;18.620;2022-10-31T14:37:19;17.17;;;6.50;;
22677;SDS011;26259;50.214;18.620;2022-10-31T14:42:44;14.50;;;6.10;;
22677;SDS011;26259;50.214;18.620;2022-10-31T14:45:20;12.23;;;4.33;;
22677;SDS011;26259;50.214;18.620;2022-10-31T14:50:50;8.33;;;4.63;;
22677;SDS011;26259;50.214;18.620;2022-10-31T14:53:22;10.90;;;4.97;;
22677;SDS011;26259;50.214;18.620;2022-10-31T14:55:53;14.87;;;6.27;;
22677;SDS011;26259;50.214;18.620;2022-10-31T14:58:41;15.00;;;6.23;;
22677;SDS011;26259;50.214;18.620;2022-10-31T15:01:15;32.27;;;10.97;;
22677;SDS011;26259;50.214;18.620;2022-10-31T15:03:44;41.13;;;9.97;;
22677;SDS011;26259;50.214;18.620;2022-10-31T15:06:12;26.90;;;7.90;;
22677;SDS011;26259;50.214;18.620;2022-10-31T15:11:09;31.10;;;8.90;;
22677;SDS011;26259;50.214;18.620;2022-10-31T15:13:52;29.80;;;8.30;;
22677;SDS011;26259;50.214;18.620;2022-10-31T15:16:32;27.37;;;7.40;;
22677;SDS011;26259;50.214;18.620;2022-10-31T15:19:02;22.97;;;6.57;;
22677;SDS011;26259;50.214;18.620;2022-10-31T15:21:30;18.10;;;6.70;;
22677;SDS011;26259;50.214;18.620;2022-10-31T15:23:57;14.57;;;6.70;;
22677;SDS011;26259;50.214;18.620;2022-10-31T15:26:33;16.30;;;6.03;;
22677;SDS011;26259;50.214;18.620;2022-10-31T15:29:04;15.70;;;6.10;;
22677;SDS011;26259;50.214;18.620;2022-10-31T15:31:31;17.93;;;6.10;;
22677;SDS011;26259;50.214;18.620;2022-10-31T15:33:59;22.87;;;6.33;;
22677;SDS011;26259;50.214;18.620;2022-10-31T15:36:31;11.40;;;6.23;;
22677;SDS011;26259;50.214;18.620;2022-10-31T15:38:57;15.77;;;6.00;;
22677;SDS011;26259;50.214;18.620;2022-10-31T15:41:31;17.63;;;7.07;;
22677;SDS011;26259;50.214;18.620;2022-10-31T15:44:07;21.03;;;8.00;;
22677;SDS011;26259;50.214;18.620;2022-10-31T15:46:40;18.40;;;7.23;;
22677;SDS011;26259;50.214;18.620;2022-10-31T15:49:12;19.17;;;7.83;;
22677;SDS011;26259;50.214;18.620;2022-10-31T15:52:02;15.90;;;8.17;;
22677;SDS011;26259;50.214;18.620;2022-10-31T15:54:31;17.67;;;8.70;;
22677;SDS011;26259;50.214;18.620;2022-10-31T15:56:57;13.40;;;7.77;;
22677;SDS011;26259;50.214;18.620;2022-10-31T15:59:24;16.27;;;9.27;;
22677;SDS011;26259;50.214;18.620;2022-10-31T16:01:59;18.93;;;8.23;;
22677;SDS011;26259;50.214;18.620;2022-10-31T16:04:26;26.23;;;9.53;;
22677;SDS011;26259;50.214;18.620;2022-10-31T16:07:12;24.63;;;10.87;;
22677;SDS011;26259;50.214;18.620;2022-10-31T16:09:53;29.03;;;11.50;;
22677;SDS011;26259;50.214;18.620;2022-10-31T16:12:19;30.70;;;12.53;;
22677;SDS011;26259;50.214;18.620;2022-10-31T16:14:46;29.47;;;12.73;;